Munson Island, Florida
Current Conditions -  °F | °C
As of 7:53 PM on Friday 19 Dec 2014 (Local Time) from KNQX Reporting Station
Scattered Clouds Scattered Clouds  
Wind Chill: 21°   Ceiling: Unl
Heat Index: 21°   Visibility: 10mi
Dew Point: 18°   Wind: 7mph
Humidity: 84%   Direction: 50°NE
Pressure: 30.05"   Gusts: NA
Location:  24.5796°N, 81.6849°W
Report Text: KNQX 200053Z 05006KT 10SM FEW035 SCT250 21/18 A3005 RMK AO2 SLP175 T02060178
Loading
Personal Weather Stations






























Interactive Weather Map New forecast layout! Learn more

10-Day Weather Forecast

Advertisements
Track Severe Weather on mobile